createdAt,value
2019-04-10T00:02:58.210Z,6.40
2019-04-10T00:08:04.023Z,7.07
2019-04-10T00:13:10.171Z,6.60
2019-04-10T00:18:15.904Z,6.50
2019-04-10T00:23:21.252Z,6.10
2019-04-10T00:28:26.300Z,5.70
2019-04-10T00:33:32.591Z,5.00
2019-04-10T00:38:37.941Z,5.60
2019-04-10T00:43:43.459Z,4.77
2019-04-10T00:48:48.396Z,4.23
2019-04-10T00:53:53.883Z,4.97
2019-04-10T00:58:59.604Z,4.80
2019-04-10T01:04:04.491Z,4.87
2019-04-10T01:09:11.213Z,4.23
2019-04-10T01:14:16.131Z,3.83
2019-04-10T01:19:20.928Z,4.33
2019-04-10T01:24:25.809Z,4.40
2019-04-10T01:30:07.223Z,4.13
2019-04-10T01:35:12.784Z,4.73
2019-04-10T01:40:17.715Z,4.70
2019-04-10T01:45:22.546Z,5.00
2019-04-10T01:50:28.335Z,5.70
2019-04-10T01:55:34.266Z,5.10
2019-04-10T02:00:41.733Z,5.23
2019-04-10T02:05:47.111Z,6.40
2019-04-10T02:10:52.273Z,5.20
2019-04-10T02:15:57.263Z,4.90
2019-04-10T02:21:03.246Z,4.63
2019-04-10T02:26:09.457Z,4.60
2019-04-10T02:31:14.702Z,4.03
2019-04-10T02:36:21.194Z,4.10
2019-04-10T02:41:27.814Z,4.03
2019-04-10T02:46:33.170Z,3.87
2019-04-10T02:51:38.925Z,3.90
2019-04-10T02:56:45.608Z,4.03
2019-04-10T03:01:51.843Z,4.40
2019-04-10T03:06:57.657Z,4.83
2019-04-10T03:12:03.715Z,4.63
2019-04-10T03:17:09.919Z,4.17
2019-04-10T03:22:15.096Z,3.70
2019-04-10T03:27:20.566Z,3.87
2019-04-10T03:32:31.004Z,3.70
2019-04-10T03:37:34.162Z,3.77
2019-04-10T03:42:39.230Z,4.23
2019-04-10T03:47:44.318Z,3.73
2019-04-10T03:52:49.614Z,4.30
2019-04-10T03:57:55.301Z,3.97
2019-04-10T04:03:00.288Z,3.10
2019-04-10T04:08:05.530Z,3.73
2019-04-10T04:13:11.141Z,3.77
2019-04-10T04:18:17.108Z,3.53
2019-04-10T04:23:22.174Z,3.30
2019-04-10T04:28:27.662Z,3.60
2019-04-10T04:33:34.117Z,3.10
2019-04-10T04:38:39.143Z,3.80
2019-04-10T04:43:46.014Z,3.40
2019-04-10T04:48:50.660Z,4.23
2019-04-10T04:53:55.626Z,4.30
2019-04-10T04:59:01.474Z,4.30
2019-04-10T05:04:06.791Z,4.23
2019-04-10T05:09:11.604Z,4.80
2019-04-10T05:14:17.399Z,4.27
2019-04-10T05:19:22.647Z,4.47
2019-04-10T05:24:27.954Z,4.60
2019-04-10T05:29:33.070Z,4.80
2019-04-10T05:34:38.333Z,5.07
2019-04-10T05:39:49.133Z,5.43
2019-04-10T05:44:50.180Z,5.07
2019-04-10T05:49:56.292Z,5.50
2019-04-10T05:55:02.196Z,8.37
2019-04-10T06:00:08.446Z,5.10
2019-04-10T06:05:14.003Z,5.70
2019-04-10T06:10:19.648Z,4.77
2019-04-10T06:15:24.566Z,5.17
2019-04-10T06:20:29.413Z,4.73
2019-04-10T06:25:38.158Z,4.37
2019-04-10T06:30:41.897Z,4.43
2019-04-10T06:35:47.229Z,5.00
2019-04-10T06:40:52.400Z,5.33
2019-04-10T06:45:57.926Z,4.70
2019-04-10T06:51:04.032Z,4.70
2019-04-10T06:56:09.911Z,4.37
2019-04-10T07:01:16.548Z,4.83
2019-04-10T07:06:22.762Z,5.60
2019-04-10T07:11:30.857Z,4.70
2019-04-10T07:16:35.733Z,4.10
2019-04-10T07:21:42.671Z,5.00
2019-04-10T07:26:50.489Z,4.30
2019-04-10T07:31:55.577Z,4.90
2019-04-10T07:37:00.460Z,4.10
2019-04-10T07:42:06.214Z,5.47
2019-04-10T07:47:11.235Z,4.50
2019-04-10T07:52:17.125Z,5.07
2019-04-10T07:57:22.667Z,4.53
2019-04-10T08:02:27.649Z,4.17
2019-04-10T08:07:35.731Z,4.47
2019-04-10T08:12:45.889Z,4.60
2019-04-10T08:17:49.276Z,4.27
2019-04-10T08:22:53.314Z,5.67
2019-04-10T08:27:58.610Z,3.87
2019-04-10T08:33:04.811Z,3.93
2019-04-10T08:38:10.319Z,3.40
2019-04-10T08:43:15.839Z,3.80
2019-04-10T08:48:21.940Z,4.60
2019-04-10T08:53:28.661Z,3.53
2019-04-10T08:58:33.554Z,4.07
2019-04-10T09:03:39.225Z,3.80
2019-04-10T09:08:45.339Z,4.03
2019-04-10T09:13:50.222Z,4.07
2019-04-10T09:18:55.764Z,4.27
2019-04-10T09:24:00.787Z,5.13
2019-04-10T09:29:06.751Z,4.10
2019-04-10T09:34:11.911Z,4.40
2019-04-10T09:39:17.219Z,4.97
2019-04-10T09:44:25.670Z,3.93
2019-04-10T09:49:38.222Z,3.87
2019-04-10T09:54:38.268Z,4.43
2019-04-10T09:59:45.563Z,4.00
2019-04-10T10:04:51.133Z,4.30
2019-04-10T10:09:59.295Z,4.23
2019-04-10T10:15:03.526Z,4.60
2019-04-10T10:20:08.688Z,5.07
2019-04-10T10:25:13.667Z,3.70
2019-04-10T10:30:19.691Z,9.20
2019-04-10T10:35:25.207Z,5.50
2019-04-10T10:40:30.292Z,5.07
2019-04-10T10:45:35.271Z,5.10
2019-04-10T10:50:41.510Z,5.30
2019-04-10T10:55:47.587Z,5.27
2019-04-10T11:00:53.588Z,5.80
2019-04-10T11:06:00.361Z,7.80
2019-04-10T11:11:06.253Z,5.37
2019-04-10T11:16:12.966Z,5.37
2019-04-10T11:21:18.292Z,5.60
2019-04-10T11:26:24.246Z,5.67
2019-04-10T11:31:31.365Z,7.53
2019-04-10T11:36:37.552Z,6.23
2019-04-10T11:41:43.389Z,5.20
2019-04-10T11:46:49.399Z,5.00
2019-04-10T11:51:56.713Z,6.53
2019-04-10T12:02:10.131Z,5.10
2019-04-10T12:07:49.203Z,5.07
2019-04-10T12:12:21.866Z,5.60
2019-04-10T12:17:27.615Z,5.60
2019-04-10T12:22:33.763Z,5.20
2019-04-10T12:27:39.074Z,6.00
2019-04-10T12:32:45.977Z,5.73
2019-04-10T12:37:59.451Z,6.43
2019-04-10T12:42:58.717Z,7.30
2019-04-10T12:48:04.123Z,5.47
2019-04-10T12:53:09.370Z,5.63
2019-04-10T12:58:19.343Z,6.10
2019-04-10T13:03:29.528Z,6.20
2019-04-10T13:08:52.514Z,6.07
2019-04-10T13:13:42.913Z,9.23
2019-04-10T13:18:51.044Z,8.33
2019-04-10T13:23:57.250Z,6.40
2019-04-10T13:29:03.621Z,5.50
2019-04-10T13:34:09.016Z,5.47
2019-04-10T13:39:17.120Z,8.00
2019-04-10T13:44:20.948Z,6.10
2019-04-10T13:49:26.184Z,7.20
2019-04-10T13:54:31.149Z,7.70
2019-04-10T13:59:37.247Z,7.33
2019-04-10T14:04:42.961Z,6.90
2019-04-10T14:09:51.391Z,6.80
2019-04-10T14:14:55.777Z,7.30
2019-04-10T14:20:00.962Z,6.67
2019-04-10T14:25:09.499Z,8.43
2019-04-10T14:30:16.262Z,6.83
2019-04-10T14:35:21.280Z,6.43
2019-04-10T14:40:26.673Z,7.27
2019-04-10T14:45:31.780Z,7.70
2019-04-10T14:50:37.806Z,8.20
2019-04-10T14:55:43.903Z,7.33
2019-04-10T15:00:50.277Z,7.37
2019-04-10T15:05:57.014Z,6.50
2019-04-10T15:11:02.521Z,6.27
2019-04-10T15:16:07.632Z,6.50
2019-04-10T15:21:12.501Z,7.43
2019-04-10T15:26:17.712Z,7.53
2019-04-10T15:31:26.043Z,8.03
2019-04-10T15:36:29.444Z,8.27
2019-04-10T15:41:34.905Z,7.33
2019-04-10T15:46:41.466Z,7.93
2019-04-10T15:51:47.512Z,7.00
2019-04-10T15:56:54.072Z,7.83
2019-04-10T16:01:59.488Z,6.93
2019-04-10T16:07:06.154Z,6.63
2019-04-10T16:12:14.503Z,6.90
2019-04-10T16:17:23.943Z,6.73
2019-04-10T16:22:31.193Z,5.90
2019-04-10T16:27:36.983Z,6.90
2019-04-10T16:32:43.928Z,8.17
2019-04-10T16:37:49.517Z,7.63
2019-04-10T16:42:55.254Z,7.27
2019-04-10T16:48:00.808Z,7.63
2019-04-10T16:53:06.055Z,8.07
2019-04-10T16:58:11.691Z,7.70
2019-04-10T17:03:17.613Z,9.63
2019-04-10T17:08:23.739Z,7.73
2019-04-10T17:13:28.858Z,6.57
2019-04-10T17:18:35.056Z,7.03
2019-04-10T17:23:40.678Z,7.03
2019-04-10T17:28:45.820Z,6.67
2019-04-10T17:33:52.338Z,7.30
2019-04-10T17:38:58.675Z,8.30
2019-04-10T17:44:03.787Z,7.83
2019-04-10T17:49:09.113Z,7.70
2019-04-10T17:54:15.447Z,7.13
2019-04-10T17:59:20.559Z,7.37
2019-04-10T18:04:26.361Z,7.50
2019-04-10T18:09:32.736Z,7.57
2019-04-10T18:14:39.862Z,9.23
2019-04-10T18:19:44.513Z,10.23
2019-04-10T18:24:49.570Z,9.57
2019-04-10T18:29:55.197Z,8.90
2019-04-10T18:35:00.450Z,9.23
2019-04-10T18:40:07.543Z,9.70
2019-04-10T18:45:13.446Z,11.60
2019-04-10T18:50:18.337Z,15.87
2019-04-10T18:55:23.222Z,16.70
2019-04-10T19:00:30.254Z,14.53
2019-04-10T19:05:38.278Z,14.10
2019-04-10T19:10:43.436Z,30.23
2019-04-10T19:15:48.958Z,35.63
2019-04-10T19:20:55.576Z,32.90
2019-04-10T19:26:00.971Z,37.70
2019-04-10T19:31:11.880Z,38.73
2019-04-10T19:36:15.288Z,35.00
2019-04-10T19:41:28.058Z,26.20
2019-04-10T19:46:29.249Z,37.50
2019-04-10T19:51:34.415Z,39.97
2019-04-10T19:56:40.402Z,41.80
2019-04-10T20:01:46.473Z,77.73
2019-04-10T20:06:52.402Z,44.40
2019-04-10T20:11:58.658Z,33.40
2019-04-10T20:17:05.939Z,30.07
2019-04-10T20:22:11.173Z,51.20
2019-04-10T20:27:16.284Z,74.40
2019-04-10T20:32:21.796Z,53.93
2019-04-10T20:37:27.011Z,58.30
2019-04-10T20:42:32.207Z,33.77
2019-04-10T20:47:37.451Z,33.63
2019-04-10T20:52:43.236Z,35.87
2019-04-10T20:57:48.090Z,23.10
2019-04-10T21:02:53.034Z,24.47
2019-04-10T21:08:02.129Z,31.67
2019-04-10T21:13:08.575Z,29.73
2019-04-10T21:18:13.654Z,43.07
2019-04-10T21:23:19.399Z,88.13
2019-04-10T21:28:24.558Z,58.87
2019-04-10T21:33:32.235Z,42.27
2019-04-10T21:38:38.666Z,35.93
2019-04-10T21:43:43.820Z,50.53
2019-04-10T21:48:48.928Z,40.37
2019-04-10T21:53:54.313Z,49.73
2019-04-10T21:58:59.309Z,38.87
2019-04-10T22:04:06.161Z,37.67
2019-04-10T22:09:11.105Z,25.77
2019-04-10T22:14:19.242Z,35.17
2019-04-10T22:19:24.517Z,28.90
2019-04-10T22:24:29.850Z,30.47
2019-04-10T22:29:36.886Z,27.97
2019-04-10T22:34:42.165Z,28.70
2019-04-10T22:39:48.147Z,25.43
2019-04-10T22:44:53.883Z,24.20
2019-04-10T22:50:00.665Z,22.13
2019-04-10T22:55:07.133Z,23.10
2019-04-10T23:00:15.928Z,20.60
2019-04-10T23:05:22.691Z,20.50
2019-04-10T23:10:27.480Z,20.90
2019-04-10T23:15:33.504Z,23.03
2019-04-10T23:20:39.709Z,30.37
2019-04-10T23:25:45.123Z,25.53
2019-04-10T23:31:10.424Z,23.50
2019-04-10T23:36:16.050Z,23.10
2019-04-10T23:41:21.269Z,21.40
2019-04-10T23:46:26.433Z,21.93
2019-04-10T23:51:31.563Z,23.83
2019-04-10T23:56:37.838Z,24.07
